Detall de PIREP

Printer-friendly versionPDF version

[2013/10/26 17:06:00]
Flight IATA:CT1001
Pilot Number:012
Company ICAO:CAT
Aircraft Type:F28/A
PAX:85
Departing Airport: LEIB
Destination Airport: LEPA
Alternate Airport:LEBL
Online: VATSIM
Route:LAMPA
Flight Level:F100
No Slew and time accel
No pause
Crash detect
Detect pilot in Cockpit between each 30 and 45 minutes
17:06 Zero fuel Weight: 54226 Lbs, Fuel Weight: 6812 Lbs
17:06 VATSIM:LEIB 261630Z 30004KT 9999 FEW024 24/21 Q1017 NOSIG
17:06 VATSIM:LEPA 261630Z 24006KT 9000 NSC 25/21 Q1016 NOSIG
17:06 VOICE CATALONIAN / MEDITERRANEAN ODYSSEY
17:13 Parking Brakes off
17:20 Take-off
17:20 Take off Weight: 60491 Lbs
17:20 Wind: 206º @ 004 Knots Heading: 242º
17:20 POS N38º 52´ 18´´ E001º 22´ 11´´
17:20 Gear Up: 158 Knots
17:20 Flaps:1 at 158 Knots
17:20 Flaps:0 at 182 Knots
17:24 TOC
17:24 Fuel Weight: 5681 Lb
17:35 Wind:220º@011 Knots Heading: 047º Ground Speed: 364 Knots Altitude 10091 ft
17:38 TOD
17:38 Fuel Weight: 4429 Lb
17:47 Flaps:1 at 206 Knots
17:48 Flaps:2 at 187 Knots
17:48 Gear Down: 175 Knots
17:48 Flaps:3 at 176 Knots
17:49 Flaps:4 at 166 Knots
17:49 Flaps:5 at 153 Knots
17:49 Flaps:4 at 127 Knots
17:49 Flaps:5 at 126 Knots
17:50 Wind:239º@005 Knots Heading: 238º Ground Speed: 122 Knots Altitude 636 ft
17:51 TouchDown:Rate -161 ft/min Speed: 114 Knots
17:51 VATSIM:LEPA 261730Z 23005KT 200V260 9000 SCT018 24/21 Q1017 NOSIG
17:51 Land
17:51 Wind:239º@006 Knots
17:51 Heading: 240º
17:51 Flight Duration: 00:31
17:51 Landing Weight: 58120 Lbs
17:51 POS N39º 32´ 47´´ E002º 44´ 35´´
17:56 Parking brakes on
17:56 Block to Block Duration: 00:43
17:56 Final Fuel: 3712 Lbls
17:56 Spent Fuel: 3099 Lbls
17:56 Flight Length: 147 NM
17:56 TOD Land Length: 48 NM

Exportar CSV

Powered by Drupal - Modified by Danger4k